Time,TemperatureF,DewpointF,PressureIn,WindDirection,WindDirectionDegrees,WindSpeedMPH,WindSpeedGustMPH,Humidity,HourlyPrecipIn,Conditions,Clouds,dailyrainin,SolarRadiationWatts/m^2,SoftwareType,DateUTC
2013-03-21 00:03:00,29.0,16.0,-100.00,SW,234,4.0,18.0,59,0.00,,,0.42,0.000000,,2013-03-21 04:03:00,
2013-03-21 00:33:00,27.0,16.0,-100.00,SW,236,5.0,9.0,64,0.00,,,0.42,0.000000,,2013-03-21 04:33:00,
2013-03-21 00:43:00,27.0,16.0,-100.00,SW,236,5.0,9.0,64,0.00,,,0.42,0.000000,,2013-03-21 04:43:00,
2013-03-21 00:53:00,27.0,16.0,-100.00,SW,236,5.0,9.0,64,0.00,,,0.42,0.000000,,2013-03-21 04:53:00,
2013-03-21 01:03:00,27.0,16.0,-100.00,SW,236,5.0,9.0,64,0.00,,,0.42,0.000000,,2013-03-21 05:03:00,
2013-03-21 01:33:00,27.0,15.0,-100.00,SW,233,6.0,14.0,59,0.00,,,0.42,0.000000,,2013-03-21 05:33:00,
2013-03-21 01:44:00,27.0,15.0,-100.00,SW,233,6.0,14.0,59,0.00,,,0.42,0.000000,,2013-03-21 05:44:00,
2013-03-21 01:52:00,27.0,15.0,-100.00,SW,233,6.0,14.0,59,0.00,,,0.42,0.000000,,2013-03-21 05:52:00,
2013-03-21 02:03:00,27.0,15.0,-100.00,SW,233,6.0,14.0,59,0.00,,,0.42,0.000000,,2013-03-21 06:03:00,
2013-03-21 02:32:00,27.0,12.0,-100.00,WSW,238,7.0,14.0,53,0.00,,,0.42,0.000000,,2013-03-21 06:32:00,
2013-03-21 02:42:00,27.0,12.0,-100.00,WSW,238,7.0,14.0,53,0.00,,,0.42,0.000000,,2013-03-21 06:42:00,
2013-03-21 02:52:00,27.0,12.0,-100.00,WSW,238,7.0,14.0,53,0.00,,,0.42,0.000000,,2013-03-21 06:52:00,
2013-03-21 03:02:00,27.0,12.0,-100.00,WSW,238,7.0,14.0,53,0.00,,,0.42,0.000000,,2013-03-21 07:02:00,
2013-03-21 03:32:00,25.0,13.0,-100.00,SW,235,7.0,12.0,61,0.00,,,0.42,0.000000,,2013-03-21 07:32:00,
2013-03-21 03:43:00,25.0,13.0,-100.00,SW,235,7.0,12.0,61,0.00,,,0.42,0.000000,,2013-03-21 07:43:00,
2013-03-21 03:53:00,25.0,13.0,-100.00,SW,235,7.0,12.0,61,0.00,,,0.42,0.000000,,2013-03-21 07:53:00,
2013-03-21 04:02:00,25.0,13.0,-100.00,SW,235,7.0,12.0,61,0.00,,,0.42,0.000000,,2013-03-21 08:02:00,
2013-03-21 04:33:00,22.0,13.0,-100.00,WSW,237,4.0,12.0,68,0.00,,,0.42,0.000000,,2013-03-21 08:33:00,
2013-03-21 04:43:00,22.0,13.0,-100.00,WSW,237,4.0,12.0,68,0.00,,,0.42,0.000000,,2013-03-21 08:43:00,
2013-03-21 04:52:00,22.0,13.0,-100.00,WSW,237,4.0,12.0,68,0.00,,,0.42,0.000000,,2013-03-21 08:52:00,
2013-03-21 05:02:00,22.0,13.0,-100.00,WSW,237,4.0,12.0,68,0.00,,,0.42,0.000000,,2013-03-21 09:02:00,
2013-03-21 05:33:00,22.0,13.0,-100.00,SW,229,6.0,9.0,69,0.00,,,0.42,0.000000,,2013-03-21 09:33:00,
2013-03-21 05:43:00,22.0,13.0,-100.00,SW,229,6.0,9.0,69,0.00,,,0.42,0.000000,,2013-03-21 09:43:00,
2013-03-21 05:53:00,22.0,13.0,-100.00,SW,229,6.0,9.0,69,0.00,,,0.42,0.000000,,2013-03-21 09:53:00,
2013-03-21 06:03:00,22.0,13.0,-100.00,SW,229,6.0,9.0,69,0.00,,,0.42,0.000000,,2013-03-21 10:03:00,
2013-03-21 06:34:00,18.0,13.0,-100.00,WSW,240,2.0,10.0,80,0.00,,,0.42,0.000000,,2013-03-21 10:34:00,
2013-03-21 06:43:00,18.0,13.0,-100.00,WSW,240,2.0,10.0,80,0.00,,,0.42,0.000000,,2013-03-21 10:43:00,
2013-03-21 06:53:00,18.0,13.0,-100.00,WSW,240,2.0,10.0,80,0.00,,,0.42,0.000000,,2013-03-21 10:53:00,
2013-03-21 07:03:00,18.0,13.0,-100.00,WSW,240,2.0,10.0,80,0.00,,,0.42,0.000000,,2013-03-21 11:03:00,
2013-03-21 07:33:00,14.0,10.0,-100.00,WSW,249,2.0,4.0,85,0.00,,,0.42,3.000000,,2013-03-21 11:33:00,
2013-03-21 07:43:00,14.0,10.0,-100.00,WSW,249,2.0,4.0,85,0.00,,,0.42,3.000000,,2013-03-21 11:43:00,
2013-03-21 07:53:00,14.0,10.0,-100.00,WSW,249,2.0,4.0,85,0.00,,,0.42,3.000000,,2013-03-21 11:53:00,
2013-03-21 08:03:00,14.0,10.0,-100.00,WSW,249,2.0,4.0,85,0.00,,,0.42,3.000000,,2013-03-21 12:03:00,
2013-03-21 08:33:00,21.0,13.0,-100.00,SW,220,5.0,10.0,70,0.00,,,0.42,22.000000,,2013-03-21 12:33:00,
2013-03-21 08:43:00,21.0,13.0,-100.00,SW,220,5.0,10.0,70,0.00,,,0.42,22.000000,,2013-03-21 12:43:00,
2013-03-21 08:53:00,21.0,13.0,-100.00,SW,220,5.0,10.0,70,0.00,,,0.42,22.000000,,2013-03-21 12:53:00,
2013-03-21 09:03:00,21.0,13.0,-100.00,SW,220,5.0,10.0,70,0.00,,,0.42,22.000000,,2013-03-21 13:03:00,
2013-03-21 09:33:00,26.0,14.0,-100.00,SW,227,5.0,9.0,60,0.00,,,0.42,64.000000,,2013-03-21 13:33:00,
2013-03-21 09:43:00,26.0,14.0,-100.00,SW,227,5.0,9.0,60,0.00,,,0.42,64.000000,,2013-03-21 13:43:00,
2013-03-21 09:53:00,26.0,14.0,-100.00,SW,227,5.0,9.0,60,0.00,,,0.42,64.000000,,2013-03-21 13:53:00,
2013-03-21 10:02:00,26.0,14.0,-100.00,SW,227,5.0,9.0,60,0.00,,,0.42,64.000000,,2013-03-21 14:02:00,
2013-03-21 10:32:00,30.0,14.0,-100.00,SSW,201,5.0,10.0,51,0.00,,,0.42,56.000000,,2013-03-21 14:32:00,
2013-03-21 10:43:00,30.0,14.0,-100.00,SSW,201,5.0,10.0,51,0.00,,,0.42,56.000000,,2013-03-21 14:43:00,
2013-03-21 10:52:00,30.0,14.0,-100.00,SSW,201,5.0,10.0,51,0.00,,,0.42,56.000000,,2013-03-21 14:52:00,
2013-03-21 11:04:00,30.0,14.0,-100.00,SSW,201,5.0,10.0,51,0.00,,,0.42,56.000000,,2013-03-21 15:04:00,
2013-03-21 11:33:00,38.0,15.0,-100.00,SSW,196,4.0,10.0,38,0.00,,,0.42,429.000000,,2013-03-21 15:33:00,
2013-03-21 11:43:00,38.0,15.0,-100.00,SSW,196,4.0,10.0,38,0.00,,,0.42,429.000000,,2013-03-21 15:43:00,
2013-03-21 11:53:00,38.0,15.0,-100.00,SSW,196,4.0,10.0,38,0.00,,,0.42,429.000000,,2013-03-21 15:53:00,
2013-03-21 12:03:00,38.0,15.0,-100.00,SSW,196,4.0,10.0,38,0.00,,,0.42,429.000000,,2013-03-21 16:03:00,
2013-03-21 12:33:00,44.0,10.0,-100.00,SW,217,3.0,10.0,25,0.03,,,0.45,649.000000,,2013-03-21 16:33:00,
2013-03-21 12:42:00,44.0,10.0,-100.00,SW,217,3.0,10.0,25,0.03,,,0.45,649.000000,,2013-03-21 16:42:00,
2013-03-21 12:53:00,44.0,10.0,-100.00,SW,217,3.0,10.0,25,0.03,,,0.45,649.000000,,2013-03-21 16:53:00,
2013-03-21 13:03:00,44.0,10.0,-100.00,SW,217,3.0,10.0,25,0.03,,,0.45,649.000000,,2013-03-21 17:03:00,
2013-03-21 13:33:00,45.0,11.0,-100.00,ENE,71,4.0,9.0,25,0.04,,,0.42,731.000000,,2013-03-21 17:33:00,
2013-03-21 13:43:00,45.0,11.0,-100.00,ENE,71,4.0,9.0,25,0.04,,,0.42,731.000000,,2013-03-21 17:43:00,
2013-03-21 13:53:00,45.0,11.0,-100.00,ENE,71,4.0,9.0,25,0.04,,,0.42,731.000000,,2013-03-21 17:53:00,
2013-03-21 14:02:00,45.0,11.0,-100.00,ENE,71,4.0,9.0,25,0.04,,,0.42,731.000000,,2013-03-21 18:02:00,
2013-03-21 14:32:00,44.0,10.0,-100.00,SSW,207,6.0,10.0,24,0.01,,,0.34,741.000000,,2013-03-21 18:32:00,
2013-03-21 14:43:00,44.0,10.0,-100.00,SSW,207,6.0,10.0,24,0.01,,,0.34,741.000000,,2013-03-21 18:43:00,
2013-03-21 14:52:00,44.0,10.0,-100.00,SSW,207,6.0,10.0,24,0.01,,,0.34,741.000000,,2013-03-21 18:52:00,
2013-03-21 15:02:00,44.0,10.0,-100.00,SSW,207,6.0,10.0,24,0.01,,,0.34,741.000000,,2013-03-21 19:02:00,
2013-03-21 15:32:00,45.0,7.0,-100.00,SSW,201,4.0,10.0,21,0.00,,,0.23,671.000000,,2013-03-21 19:32:00,
2013-03-21 15:43:00,45.0,7.0,-100.00,SSW,201,4.0,10.0,21,0.00,,,0.23,671.000000,,2013-03-21 19:43:00,
2013-03-21 15:53:00,45.0,7.0,-100.00,SSW,201,4.0,10.0,21,0.00,,,0.23,671.000000,,2013-03-21 19:53:00,
2013-03-21 16:02:00,45.0,7.0,-100.00,SSW,201,4.0,10.0,21,0.00,,,0.23,671.000000,,2013-03-21 20:02:00,
2013-03-21 16:33:00,46.0,9.0,-100.00,South,180,3.0,10.0,22,0.00,,,0.14,555.000000,,2013-03-21 20:33:00,
2013-03-21 16:43:00,46.0,9.0,-100.00,South,180,3.0,10.0,22,0.00,,,0.14,555.000000,,2013-03-21 20:43:00,
2013-03-21 16:53:00,46.0,9.0,-100.00,South,180,3.0,10.0,22,0.00,,,0.14,555.000000,,2013-03-21 20:53:00,
2013-03-21 17:03:00,46.0,9.0,-100.00,South,180,3.0,10.0,22,0.00,,,0.14,555.000000,,2013-03-21 21:03:00,
2013-03-21 17:33:00,42.0,7.0,-100.00,SW,227,4.0,9.0,23,0.00,,,0.10,373.000000,,2013-03-21 21:33:00,
2013-03-21 17:43:00,42.0,7.0,-100.00,SW,227,4.0,9.0,23,0.00,,,0.10,373.000000,,2013-03-21 21:43:00,
2013-03-21 17:53:00,42.0,7.0,-100.00,SW,227,4.0,9.0,23,0.00,,,0.10,373.000000,,2013-03-21 21:53:00,
2013-03-21 18:03:00,42.0,7.0,-100.00,SW,227,4.0,9.0,23,0.00,,,0.10,373.000000,,2013-03-21 22:03:00,
2013-03-21 18:34:00,38.0,6.0,-100.00,SSW,204,4.0,10.0,26,0.00,,,0.08,59.000000,,2013-03-21 22:34:00,
2013-03-21 18:43:00,38.0,6.0,-100.00,SSW,204,4.0,10.0,26,0.00,,,0.08,59.000000,,2013-03-21 22:43:00,
2013-03-21 18:53:00,38.0,6.0,-100.00,SSW,204,4.0,10.0,26,0.00,,,0.08,59.000000,,2013-03-21 22:53:00,
2013-03-21 19:02:00,38.0,6.0,-100.00,SSW,204,4.0,10.0,26,0.00,,,0.08,59.000000,,2013-03-21 23:02:00,
2013-03-21 19:33:00,33.0,20.0,-100.00,WNW,291,1.0,6.0,58,0.00,,,0.08,18.000000,,2013-03-21 23:33:00,
2013-03-21 19:43:00,33.0,20.0,-100.00,WNW,291,1.0,6.0,58,0.00,,,0.08,18.000000,,2013-03-21 23:43:00,
2013-03-21 19:53:00,33.0,20.0,-100.00,WNW,291,1.0,6.0,58,0.00,,,0.08,18.000000,,2013-03-21 23:53:00,
2013-03-21 20:03:00,33.0,20.0,-100.00,WNW,291,1.0,6.0,58,0.00,,,0.08,18.000000,,2013-03-22 00:03:00,
2013-03-21 20:32:00,28.0,17.0,-100.00,West,262,1.0,3.0,63,0.00,,,0.08,0.000000,,2013-03-22 00:32:00,
2013-03-21 20:42:00,28.0,17.0,-100.00,West,262,1.0,3.0,63,0.00,,,0.08,0.000000,,2013-03-22 00:42:00,
2013-03-21 20:52:00,28.0,17.0,-100.00,West,262,1.0,3.0,63,0.00,,,0.08,0.000000,,2013-03-22 00:52:00,
2013-03-21 21:03:00,28.0,17.0,-100.00,West,262,1.0,3.0,63,0.00,,,0.08,0.000000,,2013-03-22 01:03:00,
2013-03-21 21:33:00,26.0,17.0,-100.00,WSW,245,1.0,4.0,68,0.00,,,0.08,0.000000,,2013-03-22 01:33:00,
2013-03-21 21:43:00,26.0,17.0,-100.00,WSW,245,1.0,4.0,68,0.00,,,0.08,0.000000,,2013-03-22 01:43:00,
2013-03-21 21:53:00,26.0,17.0,-100.00,WSW,245,1.0,4.0,68,0.00,,,0.08,0.000000,,2013-03-22 01:53:00,
2013-03-21 22:03:00,26.0,17.0,-100.00,WSW,245,1.0,4.0,68,0.00,,,0.08,0.000000,,2013-03-22 02:03:00,
2013-03-21 22:32:00,24.0,17.0,-100.00,West,278,0.0,2.0,75,0.00,,,0.08,0.000000,,2013-03-22 02:32:00,
2013-03-21 22:43:00,24.0,17.0,-100.00,West,278,0.0,2.0,75,0.00,,,0.08,0.000000,,2013-03-22 02:43:00,
2013-03-21 22:53:00,24.0,17.0,-100.00,West,278,0.0,2.0,75,0.00,,,0.08,0.000000,,2013-03-22 02:53:00,
2013-03-21 23:02:00,24.0,17.0,-100.00,West,278,0.0,2.0,75,0.00,,,0.08,0.000000,,2013-03-22 03:02:00,
2013-03-21 23:33:00,22.0,16.0,-100.00,West,271,1.0,2.0,78,0.00,,,0.08,0.000000,,2013-03-22 03:33:00,
2013-03-21 23:43:00,22.0,16.0,-100.00,West,271,1.0,2.0,78,0.00,,,0.08,0.000000,,2013-03-22 03:43:00,
2013-03-21 23:53:00,22.0,16.0,-100.00,West,271,1.0,2.0,78,0.00,,,0.08,0.000000,,2013-03-22 03:53:00,